createdAt,value
2023-03-04T00:00:33.264Z,6.62
2023-03-04T00:03:01.547Z,6.55
2023-03-04T00:05:31.266Z,6.54
2023-03-04T00:07:58.725Z,6.45
2023-03-04T00:10:26.596Z,6.49
2023-03-04T00:12:54.144Z,6.35
2023-03-04T00:15:24.216Z,6.13
2023-03-04T00:17:51.720Z,6.05
2023-03-04T00:20:19.201Z,6.18
2023-03-04T00:22:47.995Z,6.25
2023-03-04T00:25:16.147Z,6.27
2023-03-04T00:27:44.885Z,6.25
2023-03-04T00:30:12.707Z,6.25
2023-03-04T00:32:40.251Z,6.29
2023-03-04T00:35:08.528Z,6.65
2023-03-04T00:37:36.069Z,6.25
2023-03-04T00:40:04.264Z,6.14
2023-03-04T00:42:32.810Z,5.75
2023-03-04T00:45:00.259Z,5.85
2023-03-04T00:47:27.758Z,5.57
2023-03-04T00:49:55.280Z,5.36
2023-03-04T00:52:22.757Z,5.41
2023-03-04T00:54:50.262Z,5.41
2023-03-04T00:57:17.970Z,5.61
2023-03-04T00:59:46.387Z,5.38
2023-03-04T01:02:14.127Z,5.58
2023-03-04T01:04:41.950Z,5.46
2023-03-04T01:07:10.028Z,5.44
2023-03-04T01:09:37.531Z,5.37
2023-03-04T01:12:05.304Z,5.47
2023-03-04T01:14:32.858Z,5.30
2023-03-04T01:17:00.318Z,5.19
2023-03-04T01:19:27.899Z,5.20
2023-03-04T01:21:55.359Z,5.22
2023-03-04T01:24:22.908Z,5.32
2023-03-04T01:26:50.349Z,5.44
2023-03-04T01:29:17.792Z,5.25
2023-03-04T01:31:45.198Z,5.27
2023-03-04T01:34:13.449Z,5.43
2023-03-04T01:36:40.892Z,5.24
2023-03-04T01:39:08.396Z,5.22
2023-03-04T01:41:35.901Z,5.32
2023-03-04T01:44:03.965Z,5.02
2023-03-04T01:46:32.536Z,4.96
2023-03-04T01:49:00.883Z,5.04
2023-03-04T01:51:28.495Z,5.11
2023-03-04T01:53:56.182Z,5.08
2023-03-04T01:56:46.198Z,5.18
2023-03-04T01:59:23.679Z,5.31
2023-03-04T02:01:56.280Z,5.47
2023-03-04T02:04:31.817Z,5.48
2023-03-04T02:07:01.052Z,6.10
2023-03-04T02:09:30.936Z,6.22
2023-03-04T02:11:58.913Z,6.06
2023-03-04T02:14:27.730Z,5.90
2023-03-04T02:16:55.276Z,5.57
2023-03-04T02:19:39.935Z,5.32
2023-03-04T02:22:07.804Z,5.32
2023-03-04T02:24:50.511Z,5.41
2023-03-04T02:27:18.727Z,5.36
2023-03-04T02:29:47.522Z,5.27
2023-03-04T02:32:15.372Z,5.48
2023-03-04T02:34:52.205Z,5.45
2023-03-04T02:37:22.519Z,5.38
2023-03-04T02:39:53.554Z,5.34
2023-03-04T02:42:21.085Z,5.27
2023-03-04T02:44:50.536Z,5.27
2023-03-04T02:47:20.496Z,5.09
2023-03-04T02:49:49.804Z,5.03
2023-03-04T02:52:25.533Z,5.10
2023-03-04T02:54:53.195Z,5.15
2023-03-04T02:57:21.786Z,5.11
2023-03-04T02:59:53.624Z,5.18
2023-03-04T03:02:24.264Z,4.99
2023-03-04T03:04:52.017Z,4.95
2023-03-04T03:07:21.099Z,4.99
2023-03-04T03:09:52.209Z,5.06
2023-03-04T03:12:20.339Z,4.93
2023-03-04T03:14:47.848Z,5.03
2023-03-04T03:17:18.786Z,4.96
2023-03-04T03:19:47.835Z,4.98
2023-03-04T03:22:16.506Z,4.90
2023-03-04T03:24:44.176Z,4.84
2023-03-04T03:27:11.653Z,4.99
2023-03-04T03:29:39.407Z,5.02
2023-03-04T03:32:09.038Z,4.81
2023-03-04T03:34:36.572Z,4.72
2023-03-04T03:37:04.305Z,4.89
2023-03-04T03:39:31.812Z,4.86
2023-03-04T03:41:59.328Z,4.91
2023-03-04T03:44:26.827Z,4.85
2023-03-04T03:46:54.301Z,4.78
2023-03-04T03:49:21.783Z,4.66
2023-03-04T03:51:49.303Z,4.66
2023-03-04T03:54:16.736Z,4.64
2023-03-04T03:56:44.257Z,4.76
2023-03-04T03:59:11.712Z,4.87
2023-03-04T04:01:39.231Z,4.93
2023-03-04T04:04:06.711Z,5.00
2023-03-04T04:06:34.197Z,4.99
2023-03-04T04:09:01.633Z,5.00
2023-03-04T04:11:29.191Z,5.01
2023-03-04T04:13:56.687Z,4.83
2023-03-04T04:16:24.251Z,4.77
2023-03-04T04:18:51.763Z,4.73
2023-03-04T04:21:19.280Z,4.87
2023-03-04T04:23:46.774Z,4.80
2023-03-04T04:26:16.617Z,4.73
2023-03-04T04:28:44.199Z,4.64
2023-03-04T04:31:11.664Z,4.75
2023-03-04T04:33:39.291Z,4.78
2023-03-04T04:36:07.406Z,4.80
2023-03-04T04:38:34.978Z,4.71
2023-03-04T04:41:02.473Z,4.91
2023-03-04T04:43:29.988Z,4.81
2023-03-04T04:46:01.272Z,4.71
2023-03-04T04:48:28.714Z,4.83
2023-03-04T04:50:57.282Z,4.70
2023-03-04T04:53:24.808Z,4.55
2023-03-04T04:55:52.303Z,4.54
2023-03-04T04:58:19.821Z,4.56
2023-03-04T05:00:47.400Z,4.49
2023-03-04T05:03:18.581Z,4.47
2023-03-04T05:05:46.320Z,4.51
2023-03-04T05:08:13.825Z,4.52
2023-03-04T05:10:41.272Z,4.59
2023-03-04T05:13:08.751Z,4.74
2023-03-04T05:15:39.028Z,4.59
2023-03-04T05:18:06.917Z,4.46
2023-03-04T05:20:34.393Z,4.50
2023-03-04T05:23:01.922Z,4.53
2023-03-04T05:25:29.698Z,4.53
2023-03-04T05:27:57.198Z,4.55
2023-03-04T05:30:24.727Z,4.61
2023-03-04T05:32:52.174Z,4.70
2023-03-04T05:35:21.330Z,4.63
2023-03-04T05:37:48.872Z,4.64
2023-03-04T05:40:16.383Z,4.75
2023-03-04T05:42:43.950Z,4.95
2023-03-04T05:45:11.917Z,5.07
2023-03-04T05:47:39.517Z,5.18
2023-03-04T05:50:07.750Z,5.20
2023-03-04T05:52:35.352Z,5.26
2023-03-04T05:55:03.034Z,5.27
2023-03-04T05:57:32.424Z,5.24
2023-03-04T06:00:00.120Z,5.28
2023-03-04T06:02:27.672Z,5.32
2023-03-04T06:04:55.179Z,5.44
2023-03-04T06:07:22.751Z,5.47
2023-03-04T06:09:50.238Z,5.71
2023-03-04T06:12:17.718Z,5.69
2023-03-04T06:14:45.242Z,5.67
2023-03-04T06:17:12.857Z,5.73
2023-03-04T06:19:41.872Z,5.83
2023-03-04T06:22:11.084Z,5.98
2023-03-04T06:24:38.993Z,5.99
2023-03-04T06:27:07.023Z,6.13
2023-03-04T06:29:34.595Z,6.24
2023-03-04T06:32:02.749Z,6.18
2023-03-04T06:34:30.337Z,6.14
2023-03-04T06:36:57.795Z,6.32
2023-03-04T06:39:25.331Z,6.40
2023-03-04T06:41:54.260Z,6.47
2023-03-04T06:44:21.790Z,6.43
2023-03-04T06:46:49.365Z,6.48
2023-03-04T06:49:17.093Z,6.63
2023-03-04T06:51:44.623Z,6.68
2023-03-04T06:54:12.211Z,6.87
2023-03-04T06:56:39.836Z,6.65
2023-03-04T06:59:08.369Z,6.85
2023-03-04T07:01:36.795Z,7.08
2023-03-04T07:04:04.819Z,7.26
2023-03-04T07:06:33.105Z,7.04
2023-03-04T07:09:00.796Z,6.87
2023-03-04T07:11:28.870Z,6.90
2023-03-04T07:13:57.089Z,6.79
2023-03-04T07:16:27.423Z,6.64
2023-03-04T07:18:56.210Z,6.65
2023-03-04T07:21:23.746Z,6.86
2023-03-04T07:23:51.402Z,7.10
2023-03-04T07:26:19.004Z,7.14
2023-03-04T07:28:46.727Z,7.11
2023-03-04T07:31:23.264Z,7.25
2023-03-04T07:33:51.659Z,7.71
2023-03-04T07:36:20.036Z,7.90
2023-03-04T07:38:56.230Z,7.66
2023-03-04T07:41:31.100Z,7.49
2023-03-04T07:43:59.944Z,7.88
2023-03-04T07:46:27.494Z,7.70
2023-03-04T07:48:57.034Z,7.55
2023-03-04T07:51:27.064Z,7.82
2023-03-04T07:53:59.926Z,7.98
2023-03-04T07:56:31.364Z,8.12
2023-03-04T07:58:59.680Z,8.16
2023-03-04T08:01:35.813Z,8.19
2023-03-04T08:04:07.486Z,8.08
2023-03-04T08:09:17.835Z,8.13
2023-03-04T08:11:45.344Z,8.31
2023-03-04T08:14:13.956Z,8.31
2023-03-04T08:16:42.086Z,8.46
2023-03-04T08:19:10.766Z,8.63
2023-03-04T08:21:38.707Z,8.86
2023-03-04T08:24:09.317Z,8.87
2023-03-04T08:26:47.665Z,8.91
2023-03-04T08:29:21.256Z,8.84
2023-03-04T08:31:52.649Z,8.87
2023-03-04T08:34:24.564Z,8.95
2023-03-04T08:36:52.001Z,8.92
2023-03-04T08:39:20.093Z,8.98
2023-03-04T08:41:50.283Z,9.14
2023-03-04T08:44:18.105Z,9.03
2023-03-04T08:46:45.785Z,9.04
2023-03-04T08:49:15.653Z,9.17
2023-03-04T08:51:44.684Z,9.55
2023-03-04T08:54:12.266Z,10.41
2023-03-04T08:56:42.100Z,10.38
2023-03-04T08:59:09.638Z,10.26
2023-03-04T09:01:39.647Z,9.65
2023-03-04T09:04:08.607Z,9.32
2023-03-04T09:06:36.205Z,9.38
2023-03-04T09:09:05.349Z,9.46
2023-03-04T09:11:33.001Z,9.32
2023-03-04T09:14:01.022Z,9.56
2023-03-04T09:16:29.014Z,9.33
2023-03-04T09:18:57.137Z,9.39
2023-03-04T09:21:25.128Z,9.21
2023-03-04T09:23:52.618Z,9.31
2023-03-04T09:26:27.470Z,9.14
2023-03-04T09:28:59.582Z,9.21
2023-03-04T09:31:30.266Z,9.12
2023-03-04T09:33:59.932Z,9.06
2023-03-04T09:36:27.704Z,9.01
2023-03-04T09:38:55.164Z,9.09
2023-03-04T09:41:47.896Z,9.19
2023-03-04T09:44:27.352Z,9.35
2023-03-04T09:47:02.946Z,9.51
2023-03-04T09:49:32.988Z,9.51
2023-03-04T09:52:23.948Z,9.72
2023-03-04T09:55:18.808Z,9.87
2023-03-04T09:58:21.864Z,10.05
2023-03-04T10:01:11.845Z,10.26
2023-03-04T10:04:12.621Z,10.30
2023-03-04T10:06:42.529Z,10.38
2023-03-04T10:09:44.310Z,10.43
2023-03-04T10:12:22.176Z,10.52
2023-03-04T10:15:21.256Z,10.73
2023-03-04T10:17:55.654Z,10.89
2023-03-04T10:20:25.515Z,11.02
2023-03-04T10:23:18.934Z,11.34
2023-03-04T10:25:47.226Z,11.30
2023-03-04T10:28:46.431Z,11.42
2023-03-04T10:31:14.397Z,11.42
2023-03-04T10:33:46.577Z,11.64
2023-03-04T10:36:30.035Z,11.79
2023-03-04T10:39:10.198Z,11.93
2023-03-04T10:41:45.040Z,11.88
2023-03-04T10:44:22.539Z,11.77
2023-03-04T10:46:53.975Z,11.69
2023-03-04T10:49:24.949Z,11.85
2023-03-04T10:52:04.751Z,11.72
2023-03-04T10:54:53.021Z,11.77
2023-03-04T10:57:38.805Z,11.86
2023-03-04T11:00:32.146Z,11.74
2023-03-04T11:03:33.336Z,11.76
2023-03-04T11:06:21.462Z,11.48
2023-03-04T11:08:57.837Z,11.40
2023-03-04T11:11:34.778Z,11.99
2023-03-04T11:14:16.414Z,12.00
2023-03-04T11:16:59.622Z,12.17
2023-03-04T11:19:42.503Z,12.05
2023-03-04T11:22:16.058Z,11.61
2023-03-04T11:24:44.544Z,11.55
2023-03-04T11:27:48.133Z,11.76
2023-03-04T11:30:29.858Z,12.06
2023-03-04T11:33:09.995Z,12.28
2023-03-04T11:35:54.295Z,12.19
2023-03-04T11:38:33.127Z,12.00
2023-03-04T11:41:09.939Z,12.16
2023-03-04T11:43:42.128Z,12.35
2023-03-04T11:46:46.889Z,12.53
2023-03-04T11:49:44.171Z,12.58
2023-03-04T11:52:56.719Z,12.64
2023-03-04T11:56:18.752Z,12.41
2023-03-04T11:59:23.521Z,12.41
2023-03-04T12:02:39.680Z,12.64
2023-03-04T12:05:42.307Z,12.83
2023-03-04T12:08:27.844Z,12.77
2023-03-04T12:11:42.313Z,12.48
2023-03-04T12:14:35.628Z,12.68
2023-03-04T12:17:33.554Z,12.39
2023-03-04T12:20:42.009Z,12.51
2023-03-04T12:23:33.935Z,12.42
2023-03-04T12:26:53.411Z,12.68
2023-03-04T12:30:03.823Z,12.94
2023-03-04T12:32:40.212Z,12.79
2023-03-04T12:35:53.132Z,12.79
2023-03-04T12:39:00.435Z,12.63
2023-03-04T12:41:40.256Z,12.63
2023-03-04T12:44:19.566Z,12.98
2023-03-04T12:47:06.919Z,13.34
2023-03-04T12:50:14.551Z,13.25
2023-03-04T12:53:37.959Z,13.39
2023-03-04T12:56:24.033Z,13.05
2023-03-04T12:59:00.113Z,13.00
2023-03-04T13:02:24.813Z,13.40
2023-03-04T13:05:40.919Z,13.39
2023-03-04T13:09:06.267Z,13.20
2023-03-04T13:15:18.139Z,13.29
2023-03-04T13:17:49.208Z,13.49
2023-03-04T13:20:43.717Z,13.63
2023-03-04T13:23:14.604Z,14.14
2023-03-04T13:26:06.689Z,13.64
2023-03-04T13:28:36.805Z,13.60
2023-03-04T13:31:11.597Z,13.66
2023-03-04T13:33:39.065Z,13.48
2023-03-04T13:36:46.301Z,13.51
2023-03-04T13:39:16.714Z,14.01
2023-03-04T13:41:56.669Z,14.13
2023-03-04T13:44:48.321Z,14.58
2023-03-04T13:47:24.402Z,14.81
2023-03-04T13:50:25.750Z,15.13
2023-03-04T13:52:53.873Z,14.75
2023-03-04T13:55:42.586Z,14.44
2023-03-04T13:58:23.451Z,14.48
2023-03-04T14:00:55.240Z,14.74
2023-03-04T14:03:31.335Z,14.95
2023-03-04T14:06:27.174Z,15.13
2023-03-04T14:08:57.010Z,14.60
2023-03-04T14:11:36.392Z,14.14
2023-03-04T14:14:09.046Z,14.52
2023-03-04T14:16:52.246Z,14.57
2023-03-04T14:19:29.375Z,14.14
2023-03-04T14:21:58.493Z,13.59
2023-03-04T14:24:27.049Z,13.51
2023-03-04T14:27:20.997Z,13.05
2023-03-04T14:30:00.775Z,13.20
2023-03-04T14:32:30.668Z,13.53
2023-03-04T14:35:08.262Z,13.17
2023-03-04T14:38:16.840Z,13.41
2023-03-04T14:40:59.214Z,13.29
2023-03-04T14:43:29.265Z,13.07
2023-03-04T14:46:01.955Z,13.11
2023-03-04T14:48:36.394Z,13.10
2023-03-04T14:51:04.585Z,12.72
2023-03-04T14:53:35.153Z,12.49
2023-03-04T14:56:30.228Z,12.46
2023-03-04T14:58:59.780Z,12.45
2023-03-04T15:01:41.315Z,12.14
2023-03-04T15:04:14.124Z,12.54
2023-03-04T15:06:53.977Z,12.70
2023-03-04T15:09:27.142Z,12.39
2023-03-04T15:12:07.066Z,12.24
2023-03-04T15:14:46.914Z,12.55
2023-03-04T15:17:41.623Z,12.68
2023-03-04T15:20:10.217Z,13.01
2023-03-04T15:22:44.640Z,13.02
2023-03-04T15:25:20.366Z,12.57
2023-03-04T15:27:49.964Z,12.53
2023-03-04T15:30:35.712Z,12.44
2023-03-04T15:33:03.319Z,12.56
2023-03-04T15:35:33.495Z,12.49
2023-03-04T15:38:01.716Z,12.41
2023-03-04T15:40:39.172Z,12.50
2023-03-04T15:43:12.375Z,12.44
2023-03-04T15:45:40.703Z,12.19
2023-03-04T15:48:14.045Z,11.97
2023-03-04T15:50:57.200Z,12.26
2023-03-04T15:53:34.471Z,12.18
2023-03-04T15:56:05.861Z,12.40
2023-03-04T15:58:35.159Z,12.29
2023-03-04T16:01:08.768Z,12.20
2023-03-04T16:03:36.818Z,12.22
2023-03-04T16:06:16.175Z,12.19
2023-03-04T16:08:44.939Z,12.13
2023-03-04T16:11:22.571Z,12.14
2023-03-04T16:13:50.940Z,12.00
2023-03-04T16:16:21.189Z,11.86
2023-03-04T16:18:50.605Z,11.72
2023-03-04T16:21:25.702Z,11.68
2023-03-04T16:23:54.710Z,11.68
2023-03-04T16:26:24.949Z,11.77
2023-03-04T16:28:55.378Z,11.90
2023-03-04T16:31:45.253Z,11.73
2023-03-04T16:34:15.572Z,11.58
2023-03-04T16:36:43.711Z,11.61
2023-03-04T16:39:21.703Z,11.57
2023-03-04T16:41:50.593Z,11.58
2023-03-04T16:44:19.659Z,11.63
2023-03-04T16:46:49.894Z,11.63
2023-03-04T16:49:19.192Z,11.70
2023-03-04T16:51:51.785Z,11.80
2023-03-04T16:54:29.138Z,11.73
2023-03-04T16:56:59.302Z,11.57
2023-03-04T16:59:29.752Z,11.52
2023-03-04T17:01:59.216Z,11.30
2023-03-04T17:04:30.798Z,11.19
2023-03-04T17:06:58.549Z,11.24
2023-03-04T17:09:29.407Z,11.16
2023-03-04T17:12:00.071Z,11.24
2023-03-04T17:14:29.010Z,11.34
2023-03-04T17:16:56.589Z,11.46
2023-03-04T17:19:24.186Z,11.51
2023-03-04T17:21:54.355Z,11.53
2023-03-04T17:24:22.279Z,11.59
2023-03-04T17:26:50.723Z,11.59
2023-03-04T17:29:18.399Z,11.39
2023-03-04T17:31:50.332Z,11.26
2023-03-04T17:34:19.870Z,11.22
2023-03-04T17:36:50.529Z,11.29
2023-03-04T17:39:18.620Z,11.36
2023-03-04T17:41:51.775Z,11.24
2023-03-04T17:44:24.089Z,11.14
2023-03-04T17:46:52.321Z,11.16
2023-03-04T17:49:22.071Z,11.17
2023-03-04T17:52:11.398Z,11.12
2023-03-04T17:54:40.008Z,10.94
2023-03-04T17:57:27.756Z,10.98
2023-03-04T17:59:56.915Z,11.06
2023-03-04T18:02:25.989Z,11.15
2023-03-04T18:04:53.598Z,11.09
2023-03-04T18:07:22.721Z,10.96
2023-03-04T18:09:59.019Z,10.86
2023-03-04T18:12:27.349Z,10.92
2023-03-04T18:14:54.916Z,10.90
2023-03-04T18:17:22.500Z,10.85
2023-03-04T18:19:50.041Z,10.91
2023-03-04T18:22:17.884Z,10.93
2023-03-04T18:24:45.430Z,10.98
2023-03-04T18:27:13.380Z,10.86
2023-03-04T18:29:41.127Z,10.79
2023-03-04T18:32:08.749Z,10.68
2023-03-04T18:34:37.116Z,10.73
2023-03-04T18:37:06.007Z,10.84
2023-03-04T18:39:33.989Z,10.91
2023-03-04T18:42:04.529Z,10.80
2023-03-04T18:44:33.033Z,10.70
2023-03-04T18:47:00.638Z,10.77
2023-03-04T18:49:28.249Z,10.68
2023-03-04T18:51:55.723Z,10.68
2023-03-04T18:54:23.152Z,10.58
2023-03-04T18:57:03.752Z,10.47
2023-03-04T18:59:49.049Z,10.46
2023-03-04T19:02:27.174Z,10.54
2023-03-04T19:04:57.628Z,10.63
2023-03-04T19:07:46.527Z,10.72
2023-03-04T19:10:14.260Z,10.69
2023-03-04T19:12:44.264Z,10.64
2023-03-04T19:15:17.048Z,10.67
2023-03-04T19:17:46.188Z,10.64
2023-03-04T19:20:15.670Z,10.63
2023-03-04T19:22:44.316Z,10.60
2023-03-04T19:25:13.258Z,10.61
2023-03-04T19:27:40.977Z,10.48
2023-03-04T19:30:09.423Z,10.47
2023-03-04T19:32:37.555Z,10.41
2023-03-04T19:35:11.158Z,10.40
2023-03-04T19:37:39.684Z,10.29
2023-03-04T19:40:10.473Z,10.24
2023-03-04T19:42:41.073Z,10.23
2023-03-04T19:45:11.802Z,10.36
2023-03-04T19:47:43.303Z,10.49
2023-03-04T19:50:14.150Z,10.58
2023-03-04T19:52:43.427Z,10.55
2023-03-04T19:55:14.889Z,10.49
2023-03-04T19:57:42.708Z,10.39
2023-03-04T20:00:12.706Z,10.28
2023-03-04T20:02:43.869Z,10.20
2023-03-04T20:05:12.672Z,10.09
2023-03-04T20:07:44.712Z,10.10
2023-03-04T20:10:34.500Z,10.04
2023-03-04T20:13:03.829Z,10.08
2023-03-04T20:15:41.872Z,9.98
2023-03-04T20:18:10.784Z,9.90
2023-03-04T20:20:40.324Z,9.85
2023-03-04T20:23:13.445Z,9.83
2023-03-04T20:25:44.902Z,9.80
2023-03-04T20:28:15.576Z,9.74
2023-03-04T20:30:43.366Z,9.73
2023-03-04T20:33:14.255Z,9.68
2023-03-04T20:35:43.620Z,9.63
2023-03-04T20:38:11.502Z,9.55
2023-03-04T20:40:40.521Z,9.52
2023-03-04T20:43:08.265Z,9.45
2023-03-04T20:45:37.328Z,9.33
2023-03-04T20:48:05.209Z,9.62
2023-03-04T20:50:32.714Z,9.56
2023-03-04T20:53:00.665Z,9.34
2023-03-04T20:55:28.336Z,9.12
2023-03-04T20:57:55.861Z,9.07
2023-03-04T21:00:23.617Z,9.12
2023-03-04T21:02:51.124Z,8.97
2023-03-04T21:05:20.351Z,8.86
2023-03-04T21:07:48.708Z,8.86
2023-03-04T21:10:19.495Z,8.94
2023-03-04T21:12:48.593Z,8.89
2023-03-04T21:15:16.759Z,8.84
2023-03-04T21:17:44.439Z,8.61
2023-03-04T21:20:17.599Z,8.66
2023-03-04T21:22:45.120Z,8.73
2023-03-04T21:25:16.272Z,8.73
2023-03-04T21:27:44.911Z,8.60
2023-03-04T21:30:19.491Z,8.59
2023-03-04T21:32:59.121Z,8.51
2023-03-04T21:35:27.571Z,8.77
2023-03-04T21:38:02.247Z,8.53
2023-03-04T21:40:32.052Z,8.53
2023-03-04T21:43:00.110Z,8.31
2023-03-04T21:45:27.612Z,8.33
2023-03-04T21:47:55.067Z,8.63
2023-03-04T21:50:22.588Z,8.42
2023-03-04T21:52:50.055Z,8.35
2023-03-04T21:55:17.601Z,8.40
2023-03-04T21:57:45.305Z,8.02
2023-03-04T22:00:19.260Z,8.15
2023-03-04T22:02:46.762Z,8.03
2023-03-04T22:05:14.351Z,8.03
2023-03-04T22:07:42.181Z,7.86
2023-03-04T22:10:10.579Z,7.58
2023-03-04T22:12:38.157Z,7.85
2023-03-04T22:15:06.446Z,8.34
2023-03-04T22:17:35.129Z,8.35
2023-03-04T22:20:02.771Z,8.16
2023-03-04T22:22:31.060Z,8.12
2023-03-04T22:25:00.271Z,8.12
2023-03-04T22:27:27.956Z,7.83
2023-03-04T22:29:57.104Z,7.80
2023-03-04T22:32:24.592Z,7.51
2023-03-04T22:34:52.326Z,7.50
2023-03-04T22:37:19.776Z,7.41
2023-03-04T22:39:47.236Z,7.23
2023-03-04T22:42:14.739Z,7.09
2023-03-04T22:44:42.197Z,7.20
2023-03-04T22:47:15.212Z,7.06
2023-03-04T22:49:42.874Z,7.23
2023-03-04T22:52:10.408Z,6.80
2023-03-04T22:54:37.864Z,6.85
2023-03-04T22:57:05.374Z,6.76
2023-03-04T22:59:37.369Z,6.69
2023-03-04T23:02:05.260Z,6.57
2023-03-04T23:04:33.213Z,6.44
2023-03-04T23:07:00.733Z,6.44
2023-03-04T23:09:28.274Z,6.34
2023-03-04T23:11:55.810Z,6.47
2023-03-04T23:14:23.404Z,6.76
2023-03-04T23:16:51.042Z,6.85
2023-03-04T23:19:18.720Z,6.85
2023-03-04T23:21:46.565Z,6.76
2023-03-04T23:24:14.313Z,6.51
2023-03-04T23:26:44.334Z,6.42
2023-03-04T23:29:16.337Z,6.27
2023-03-04T23:31:44.646Z,6.34
2023-03-04T23:34:12.951Z,6.32
2023-03-04T23:36:41.341Z,6.42
2023-03-04T23:39:10.177Z,6.54
2023-03-04T23:41:38.662Z,6.39
2023-03-04T23:44:08.543Z,6.47
2023-03-04T23:46:39.263Z,6.40
2023-03-04T23:49:08.672Z,6.56
2023-03-04T23:51:37.018Z,6.40
2023-03-04T23:54:05.529Z,6.29
2023-03-04T23:56:33.256Z,6.35
2023-03-04T23:59:01.347Z,6.32
